Airfield :
LOGIN :

Register | Disclaimer

   EN    FR    IT 

 










Legend :    VFR   Marginal VFR   IFR   Intensive IFR   Very Intensive IFR
Visi :
Ceiling :
>= 8 km
>= 3000ft
5 to 8 km
1000 to 3000 ft
1500m to 5 km
500 to 1000 ft
800 to 1500m
200 to 500 ft
< 800m
< 200 ft
Symbols :   Thunderstorms  Fog  Heavy snow  Heavy precipitations  Wind > 20 kt
SIGMETs :     Misc.  Thunderstorms  Icing  Turbulence  Mountain Waves  Volcanic Ashes






- Airport Elevation : 276 ft


LYVR - Vršac International

CURRENT METAR :
  • 140900Z 03006KT 360V060 9999 SCT033 16/11 Q1010 NOSIG

EXPIRED METARs :
  • 140830Z 04006KT 010V070 9999 BKN033 15/11 Q1010 NOSIG
  • 140800Z 05005KT 9999 BKN033 15/11 Q1010 NOSIG
  • 140730Z 06004KT 9999 BKN033 14/11 Q1011 NOSIG
  • 140700Z 04003KT 360V070 9999 BKN040 14/11 Q1010 NOSIG
  • 140630Z VRB02KT 9999 BKN040 14/11 Q1010 NOSIG

TAF TAF LYVR
Valid from the 14 at 06:00 until the 15 at 06:00 UTC


140500Z 1406/1506 08006KT 9999 SCT040 TX17/1413Z TN10/1503Z
TEMPO 1406/1408 5000 RA BKN006 BKN033
TEMPO 1421/1503 3000 BR
BECMG 1503/1505 14016KT



MET'MAP, your aeronautical weather chart ! - Copyright ORBIFLY December 2007 - Disclaimer

ORBIFLY MET'MAP TEAM :

Programming & Development : Alexandra Zaïnal
Concept & Development : Baudouin d'Aumeries
Co-Development & Prog : Marc-Olivier Méhu
Technical & hardware support : Manuel Goepfert

Contact : metmap@orbifly.com




SOURCES & CREDITS :

   NOAA